createdAt,value
2022-12-14T00:06:21.604Z,18.8
2022-12-14T00:16:27.672Z,18.8
2022-12-14T00:26:33.717Z,18.8
2022-12-14T00:36:39.783Z,18.7
2022-12-14T00:46:47.940Z,18.7
2022-12-14T00:56:53.779Z,18.7
2022-12-14T01:07:01.647Z,18.7
2022-12-14T01:17:07.775Z,18.7
2022-12-14T01:27:13.944Z,18.6
2022-12-14T01:37:19.853Z,18.6
2022-12-14T01:47:25.856Z,18.6
2022-12-14T01:57:31.945Z,18.6
2022-12-14T02:07:37.976Z,18.6
2022-12-14T02:17:44.039Z,18.5
2022-12-14T02:27:50.048Z,18.5
2022-12-14T02:37:56.130Z,18.5
2022-12-14T02:48:02.166Z,18.5
2022-12-14T02:58:08.227Z,18.5
2022-12-14T03:08:14.265Z,18.4
2022-12-14T03:18:20.335Z,18.4
2022-12-14T03:28:26.385Z,18.4
2022-12-14T03:38:32.421Z,18.4
2022-12-14T03:48:38.472Z,18.4
2022-12-14T03:58:44.530Z,18.4
2022-12-14T04:08:50.550Z,18.6
2022-12-14T04:19:00.084Z,18.7
2022-12-14T04:29:04.558Z,18.8
2022-12-14T04:39:10.593Z,18.8
2022-12-14T04:49:16.661Z,18.8
2022-12-14T04:59:22.722Z,19
2022-12-14T05:09:28.743Z,19.1
2022-12-14T05:19:34.800Z,19.4
2022-12-14T05:29:40.829Z,19.5
2022-12-14T05:39:46.885Z,19.7
2022-12-14T05:49:52.941Z,19.8
2022-12-14T05:59:59.005Z,19.9
2022-12-14T06:10:05.023Z,19.9
2022-12-14T06:20:12.982Z,19.9
2022-12-14T06:30:18.992Z,19.8
2022-12-14T06:40:25.089Z,19.8
2022-12-14T06:50:31.109Z,19.9
2022-12-14T07:00:37.180Z,19.9
2022-12-14T07:10:43.193Z,19.9
2022-12-14T07:20:51.133Z,19.9
2022-12-14T07:30:57.212Z,20
2022-12-14T07:41:03.567Z,20.1
2022-12-14T07:51:09.278Z,20.1
2022-12-14T08:01:15.396Z,20.2
2022-12-14T08:11:21.356Z,20.2
2022-12-14T08:21:27.464Z,20.2
2022-12-14T08:31:33.557Z,20.2
2022-12-14T08:41:39.559Z,20.2
2022-12-14T08:51:45.575Z,20.2
2022-12-14T09:01:51.910Z,20.2
2022-12-14T09:11:57.888Z,20.2
2022-12-14T09:22:03.808Z,20.1
2022-12-14T09:32:09.758Z,20.1
2022-12-14T09:42:17.684Z,20.1
2022-12-14T09:52:25.621Z,20.2
2022-12-14T10:02:32.853Z,20.2
2022-12-14T10:12:37.715Z,20.3
2022-12-14T10:22:43.786Z,20.3
2022-12-14T10:32:49.818Z,20.3
2022-12-14T10:42:55.987Z,20.3
2022-12-14T10:53:01.930Z,20.4
2022-12-14T11:03:08.058Z,20.5
2022-12-14T11:13:14.022Z,20.6
2022-12-14T11:23:20.066Z,20.7
2022-12-14T11:33:26.123Z,20.6
2022-12-14T11:43:32.164Z,20.5
2022-12-14T11:53:38.203Z,20.4
2022-12-14T12:03:44.371Z,20.3
2022-12-14T12:13:50.302Z,20.1
2022-12-14T12:23:56.351Z,20.1
2022-12-14T12:34:02.412Z,20.1
2022-12-14T12:44:08.461Z,20.1
2022-12-14T13:04:22.448Z,20.3
2022-12-14T13:14:28.493Z,20.5
2022-12-14T13:24:36.410Z,20.7
2022-12-14T13:34:42.469Z,20.8
2022-12-14T13:44:48.547Z,21
2022-12-14T13:55:00.561Z,21.1
2022-12-14T14:05:00.630Z,21.1
2022-12-14T14:15:06.649Z,21
2022-12-14T14:25:12.784Z,20.9
2022-12-14T14:35:18.746Z,20.9
2022-12-14T14:45:24.820Z,20.8
2022-12-14T14:55:53.336Z,20.7
2022-12-14T15:05:44.319Z,20.6
2022-12-14T15:15:42.955Z,20.5
2022-12-14T15:25:49.057Z,20.4
2022-12-14T15:35:55.049Z,20.4
2022-12-14T15:46:04.095Z,20.3
2022-12-14T15:56:11.641Z,20.3
2022-12-14T16:06:13.215Z,20.2
2022-12-14T16:16:19.292Z,20.2
2022-12-14T16:26:25.403Z,20.1
2022-12-14T16:36:31.382Z,20.1
2022-12-14T16:46:37.477Z,20
2022-12-14T16:56:45.377Z,20
2022-12-14T17:06:51.384Z,20
2022-12-14T17:16:58.568Z,20
2022-12-14T17:27:03.513Z,19.9
2022-12-14T17:37:11.391Z,19.9
2022-12-14T17:47:17.472Z,19.8
2022-12-14T17:57:23.519Z,19.8
2022-12-14T18:07:29.598Z,19.8
2022-12-14T18:17:35.609Z,19.7
2022-12-14T18:27:43.611Z,19.7
2022-12-14T18:37:49.595Z,19.7
2022-12-14T18:47:57.532Z,19.7
2022-12-14T18:58:03.546Z,19.6
2022-12-14T19:08:09.636Z,19.6
2022-12-14T19:18:15.658Z,19.6
2022-12-14T19:28:33.844Z,19.5
2022-12-14T19:38:27.736Z,19.5
2022-12-14T19:48:33.810Z,19.5
2022-12-14T19:58:39.842Z,19.5
2022-12-14T20:08:45.918Z,19.4
2022-12-14T20:18:51.927Z,19.4
2022-12-14T20:28:58.025Z,19.4
2022-12-14T20:39:04.031Z,19.3
2022-12-14T20:49:11.990Z,19.3
2022-12-14T20:59:19.907Z,19.3
2022-12-14T21:09:26.024Z,19.2
2022-12-14T21:19:32.013Z,19.2
2022-12-14T21:29:38.076Z,19.2
2022-12-14T21:39:49.023Z,19.2
2022-12-14T21:49:52.063Z,19.1
2022-12-14T21:59:58.135Z,19.1
2022-12-14T22:10:04.171Z,19.1
2022-12-14T22:20:12.070Z,19
2022-12-14T22:30:18.151Z,19
2022-12-14T22:40:24.355Z,19
2022-12-14T22:50:30.247Z,19
2022-12-14T23:00:36.244Z,18.9
2022-12-14T23:10:42.332Z,18.9
2022-12-14T23:20:48.369Z,18.9
2022-12-14T23:30:54.492Z,18.9
2022-12-14T23:41:00.441Z,18.8
2022-12-14T23:51:06.527Z,18.8
